Time;durP1;ratioP1;P1;durP2;ratioP2;P2;SDS_P1;SDS_P2;PMS_P1;PMS_P2;Temp;Humidity;BMP_temperature;BMP_pressure;BME280_temperature;BME280_humidity;BME280_pressure;Samples;Min_cycle;Max_cycle;Signal;HPM_P1;HPM_P2
2023/07/13 00:01:51;;;;;;;10.10;3.42;;;16.30;99.90;;;16.53;100.00;100525.47;5020004;28;20306;-82
2023/07/13 00:04:24;;;;;;;6.10;2.88;;;16.30;99.90;;;16.53;100.00;100535.63;5013168;28;20040;-81
2023/07/13 00:06:51;;;;;;;7.03;2.88;;;16.30;99.90;;;16.58;100.00;100537.63;5025759;28;20242;-82
2023/07/13 00:09:18;;;;;;;4.25;2.42;;;16.30;99.90;;;16.53;100.00;100538.38;5018084;28;20140;-82
2023/07/13 00:11:47;;;;;;;4.30;2.60;;;16.30;99.90;;;16.55;100.00;100538.97;5019649;28;20042;-82
2023/07/13 00:14:29;;;;;;;6.68;3.08;;;16.30;99.90;;;16.46;100.00;100524.00;5018321;28;20041;-82
2023/07/13 00:17:01;;;;;;;6.15;3.70;;;16.30;99.90;;;16.54;100.00;100545.56;5016117;28;20053;-81
2023/07/13 00:19:45;;;;;;;5.25;3.20;;;16.20;99.90;;;16.48;100.00;100530.06;5017124;28;20486;-82
2023/07/13 00:22:11;;;;;;;6.47;3.20;;;16.20;99.90;;;16.48;100.00;100538.34;5014580;28;20092;-82
2023/07/13 00:24:41;;;;;;;7.75;3.00;;;16.20;99.90;;;16.40;100.00;100531.38;5021362;28;20092;-82
2023/07/13 00:27:10;;;;;;;4.47;3.00;;;16.20;99.90;;;16.49;100.00;100540.00;5018971;28;20034;-82
2023/07/13 00:29:36;;;;;;;7.43;3.22;;;16.20;99.90;;;16.46;100.00;100543.28;5016084;28;20366;-82
2023/07/13 00:32:04;;;;;;;6.85;2.92;;;16.20;99.90;;;16.45;100.00;100547.13;5017742;28;20478;-82
2023/07/13 00:34:31;;;;;;;6.20;3.20;;;16.20;99.90;;;16.42;100.00;100536.63;5011770;28;20056;-82
2023/07/13 00:36:57;;;;;;;6.90;3.55;;;16.20;99.90;;;16.37;100.00;100546.50;5023166;28;20398;-82
2023/07/13 00:39:23;;;;;;;5.00;2.92;;;16.20;99.90;;;16.33;100.00;100539.84;5013191;28;20100;-81
2023/07/13 00:41:49;;;;;;;4.82;3.35;;;16.10;99.90;;;16.31;100.00;100542.03;5021814;28;20029;-81
2023/07/13 00:44:17;;;;;;;6.18;3.20;;;16.10;99.90;;;16.31;100.00;100536.53;5017011;28;20478;-81
2023/07/13 00:46:43;;;;;;;7.30;3.55;;;16.10;99.90;;;16.24;100.00;100536.72;5028760;28;20068;-81
2023/07/13 00:49:14;;;;;;;4.65;3.20;;;16.10;99.90;;;16.28;100.00;100526.00;5037275;28;20108;-81
2023/07/13 00:51:51;;;;;;;8.43;3.40;;;16.10;99.90;;;16.20;100.00;100512.72;5009642;28;20069;-81
2023/07/13 00:54:26;;;;;;;5.38;3.40;;;16.10;99.90;;;16.43;100.00;100521.78;5020448;28;20136;-81
2023/07/13 00:56:57;;;;;;;5.15;3.05;;;16.10;99.90;;;16.38;100.00;100530.81;5016001;28;20022;-81
2023/07/13 00:59:24;;;;;;;5.88;3.60;;;16.00;99.90;;;16.05;100.00;100518.88;5042572;28;20068;-83
2023/07/13 01:01:51;;;;;;;6.55;3.47;;;15.90;99.90;;;15.81;100.00;100503.44;5021806;28;20033;-82
2023/07/13 01:04:18;;;;;;;6.25;3.38;;;15.80;99.90;;;15.86;100.00;100508.16;5018234;28;20113;-82
2023/07/13 01:06:46;;;;;;;6.80;3.63;;;15.70;99.90;;;16.00;100.00;100508.63;5016294;28;20041;-82
2023/07/13 01:09:13;;;;;;;6.05;3.20;;;15.70;99.90;;;15.84;100.00;100493.81;5016210;28;20479;-82
2023/07/13 01:11:41;;;;;;;5.15;3.38;;;15.70;99.90;;;15.89;100.00;100504.91;5019230;28;20478;-82
2023/07/13 01:14:07;;;;;;;6.38;3.63;;;15.70;99.90;;;15.84;100.00;100499.31;5012282;28;20045;-82
2023/07/13 01:16:36;;;;;;;6.13;3.47;;;15.60;99.90;;;15.83;100.00;100497.66;5013814;28;20462;-82
2023/07/13 01:19:14;;;;;;;5.45;3.50;;;15.60;99.90;;;15.74;100.00;100500.03;5038104;28;20037;-81
2023/07/13 01:21:42;;;;;;;7.63;3.60;;;15.50;99.90;;;15.61;100.00;100495.72;5022646;28;20037;-82
2023/07/13 01:24:09;;;;;;;6.95;3.67;;;15.50;99.90;;;15.52;100.00;100502.75;5020010;28;20064;-82
2023/07/13 01:26:35;;;;;;;5.95;3.58;;;15.40;99.90;;;15.47;100.00;100494.44;5017686;28;20099;-82
2023/07/13 01:29:01;;;;;;;6.18;3.60;;;15.30;99.90;;;15.43;100.00;100496.03;5020180;28;20033;-82
2023/07/13 01:31:27;;;;;;;5.10;3.40;;;15.20;99.90;;;15.39;100.00;100493.81;5018293;28;20056;-81
2023/07/13 01:33:53;;;;;;;6.38;4.60;;;15.10;99.90;;;15.29;100.00;100490.88;5033442;28;20042;-82
2023/07/13 01:36:21;;;;;;;7.25;3.88;;;15.00;99.90;;;15.21;100.00;100489.41;5022488;28;20478;-82
2023/07/13 01:38:46;;;;;;;6.93;4.57;;;14.90;99.90;;;15.06;100.00;100480.94;5018447;28;20045;-82
2023/07/13 01:41:12;;;;;;;6.57;4.07;;;14.90;99.90;;;15.21;100.00;100486.66;5017263;28;20081;-83
2023/07/13 01:43:39;;;;;;;7.35;4.05;;;14.80;99.90;;;15.14;100.00;100485.19;5012508;28;20034;-82
2023/07/13 01:46:06;;;;;;;;;;;14.80;99.90;;;15.07;100.00;100474.34;5024410;28;20482;-82
2023/07/13 01:48:32;;;;;;;7.10;4.15;;;14.70;99.90;;;15.10;100.00;100482.91;5020928;28;19948;-82
2023/07/13 01:50:57;;;;;;;7.85;4.82;;;14.70;99.90;;;15.21;100.00;100494.06;5024025;28;20045;-81
2023/07/13 01:53:23;;;;;;;8.73;4.68;;;14.70;99.90;;;15.29;100.00;100490.88;5044722;28;20049;-81
2023/07/13 01:55:49;;;;;;;7.88;4.45;;;14.80;99.90;;;15.28;100.00;100488.41;5019688;28;20052;-81
2023/07/13 01:58:15;;;;;;;9.43;5.00;;;14.80;99.90;;;15.30;100.00;100486.25;5019602;28;20040;-81
2023/07/13 02:00:40;;;;;;;8.82;4.78;;;14.90;99.90;;;15.26;100.00;100490.59;5040000;28;20037;-81
2023/07/13 02:03:06;;;;;;;8.20;4.57;;;14.80;99.90;;;15.27;100.00;100493.06;5050728;28;20065;-81
2023/07/13 02:05:32;;;;;;;8.85;4.80;;;14.80;99.90;;;15.32;100.00;100498.63;5015006;28;20075;-81
2023/07/13 02:07:58;;;;;;;7.60;4.72;;;14.90;99.90;;;15.16;100.00;100489.31;5018765;28;20037;-80
2023/07/13 02:10:24;;;;;;;9.82;4.38;;;14.90;99.90;;;15.35;100.00;100506.38;5020390;28;20042;-81
2023/07/13 02:12:51;;;;;;;8.40;4.63;;;15.00;99.90;;;15.43;100.00;100521.59;5024855;28;20038;-80
2023/07/13 02:15:17;;;;;;;9.50;4.30;;;15.00;99.90;;;15.41;100.00;100517.47;5032382;28;20038;-80
2023/07/13 02:17:42;;;;;;;10.73;4.22;;;15.00;99.90;;;15.57;100.00;100522.06;5051062;28;20036;-80
2023/07/13 02:20:09;;;;;;;8.45;4.18;;;15.00;99.90;;;15.67;100.00;100530.47;5031390;28;20045;-80
2023/07/13 02:22:35;;;;;;;7.57;4.25;;;15.00;99.90;;;15.60;100.00;100538.06;5014357;28;20116;-80
2023/07/13 02:25:01;;;;;;;8.60;4.57;;;15.00;99.90;;;15.44;100.00;100534.25;5014857;28;20486;-80
2023/07/13 02:27:26;;;;;;;6.05;4.00;;;15.00;99.90;;;15.31;100.00;100532.69;5015574;28;20045;-81
2023/07/13 02:29:53;;;;;;;7.22;3.90;;;14.90;99.90;;;15.30;100.00;100538.47;5021163;28;20025;-80
2023/07/13 02:32:21;;;;;;;8.23;4.03;;;14.90;99.90;;;15.22;100.00;100521.28;5030286;28;20130;-81
2023/07/13 02:34:47;;;;;;;8.48;4.30;;;14.80;99.90;;;15.26;100.00;100531.81;5017695;28;20458;-80
2023/07/13 02:37:12;;;;;;;7.10;4.25;;;14.80;99.90;;;15.31;100.00;100535.44;5025055;28;20034;-81
2023/07/13 02:39:38;;;;;;;8.90;4.22;;;14.80;99.90;;;15.33;100.00;100536.03;5031266;28;20044;-81
2023/07/13 02:42:04;;;;;;;7.18;4.55;;;14.80;99.90;;;15.49;100.00;100533.50;5042404;28;20037;-80
2023/07/13 02:44:30;;;;;;;7.85;4.13;;;14.70;99.90;;;15.16;100.00;100537.97;5014612;28;20038;-80
2023/07/13 02:46:56;;;;;;;7.90;3.70;;;14.60;99.90;;;15.12;100.00;100531.28;5013406;28;20105;-80
2023/07/13 02:49:21;;;;;;;7.20;4.10;;;14.50;99.90;;;15.00;100.00;100539.63;5022014;28;20048;-81
2023/07/13 02:51:47;;;;;;;9.02;4.30;;;14.50;99.90;;;14.84;100.00;100533.88;5017421;28;20045;-80
2023/07/13 02:54:13;;;;;;;8.40;4.35;;;14.40;99.90;;;14.83;100.00;100518.47;5020934;28;20041;-81
2023/07/13 02:56:40;;;;;;;7.95;4.25;;;14.40;99.90;;;14.78;100.00;100529.38;5016523;28;20060;-81
2023/07/13 02:59:06;;;;;;;5.60;4.28;;;14.30;99.90;;;14.92;100.00;100527.13;5017632;28;20042;-81
2023/07/13 03:01:32;;;;;;;7.65;4.20;;;14.30;99.90;;;15.08;100.00;100528.22;5023856;28;20687;-80
2023/07/13 03:03:59;;;;;;;7.60;4.28;;;14.30;99.90;;;14.85;100.00;100534.69;5022879;28;20033;-80
2023/07/13 03:06:29;;;;;;;8.02;4.32;;;14.30;99.90;;;14.79;100.00;100531.84;5018681;28;20073;-80
2023/07/13 03:08:55;;;;;;;8.02;4.40;;;14.30;99.90;;;14.85;100.00;100531.94;5020696;28;20033;-80
2023/07/13 03:11:23;;;;;;;8.48;4.68;;;14.40;99.90;;;14.95;100.00;100532.13;5019471;28;20100;-81
2023/07/13 03:13:58;;;;;;;7.57;4.30;;;14.40;99.90;;;15.07;100.00;100538.38;5017161;28;20037;-80
2023/07/13 03:16:25;;;;;;;7.63;4.13;;;14.40;99.90;;;15.12;100.00;100542.28;5020062;28;20038;-81
2023/07/13 03:18:52;;;;;;;7.60;4.03;;;14.50;99.90;;;15.06;100.00;100535.88;5018948;28;20037;-81
2023/07/13 03:21:18;;;;;;;7.90;4.13;;;14.50;99.90;;;15.14;100.00;100545.63;5019875;28;20455;-81
2023/07/13 03:23:44;;;;;;;8.32;3.75;;;14.50;99.90;;;15.06;100.00;100550.44;5028440;28;20040;-81
2023/07/13 03:26:15;;;;;;;6.55;4.13;;;14.50;99.90;;;15.15;100.00;100536.31;5016661;28;20503;-81
2023/07/13 03:28:42;;;;;;;8.55;4.18;;;14.40;99.90;;;15.16;100.00;100535.22;5022315;28;20041;-81
2023/07/13 03:31:19;;;;;;;7.07;4.20;;;14.40;99.90;;;15.16;100.00;100548.97;5023707;28;20038;-81
2023/07/13 03:33:46;;;;;;;8.60;4.32;;;14.30;99.90;;;15.01;100.00;100544.03;5013904;28;20481;-79
2023/07/13 03:36:19;;;;;;;7.03;4.00;;;14.30;99.90;;;15.04;100.00;100552.59;5029102;28;20040;-79
2023/07/13 03:38:52;;;;;;;7.18;3.85;;;14.40;99.90;;;15.07;100.00;100556.78;5027422;28;20127;-81
2023/07/13 03:41:22;;;;;;;7.00;3.60;;;14.50;99.90;;;15.18;100.00;100553.09;5032567;28;20056;-79
2023/07/13 03:43:50;;;;;;;7.78;3.90;;;14.60;99.90;;;15.37;100.00;100556.41;5027515;28;20042;-81
2023/07/13 03:46:19;;;;;;;7.93;3.50;;;14.60;99.90;;;15.27;100.00;100561.75;5025681;28;20022;-81
2023/07/13 03:48:47;;;;;;;7.05;3.42;;;14.60;99.90;;;15.13;100.00;100561.25;5045662;28;20038;-81
2023/07/13 03:51:16;;;;;;;;;;;14.60;99.90;;;15.22;100.00;100561.69;5022571;28;20117;-80
2023/07/13 03:53:44;;;;;;;13.00;3.63;;;14.70;99.90;;;15.18;100.00;100563.28;5015307;28;19971;-81
2023/07/13 03:56:15;;;;;;;6.60;3.40;;;14.70;99.90;;;15.35;100.00;100564.09;5044857;28;20026;-80
2023/07/13 03:58:44;;;;;;;7.30;3.40;;;14.80;99.90;;;15.41;100.00;100569.69;5020826;28;20046;-80
2023/07/13 04:01:18;;;;;;;6.25;3.63;;;14.80;99.90;;;15.57;100.00;100576.25;5015998;28;20029;-81
2023/07/13 04:03:46;;;;;;;7.68;3.40;;;14.80;99.90;;;15.53;100.00;100576.75;5027787;28;20087;-81
2023/07/13 04:06:22;;;;;;;10.00;3.55;;;14.90;99.90;;;15.50;100.00;100577.22;5026334;28;20051;-80
2023/07/13 04:08:51;;;;;;;8.55;3.45;;;15.00;99.90;;;15.56;100.00;100578.16;5029542;28;20112;-80
2023/07/13 04:11:19;;;;;;;6.97;3.00;;;15.20;99.90;;;15.67;100.00;100584.63;5029034;28;20044;-81
2023/07/13 04:13:46;;;;;;;6.45;3.00;;;15.30;99.90;;;15.78;100.00;100582.88;5030170;28;20059;-80
2023/07/13 04:16:14;;;;;;;5.87;2.93;;;15.40;99.90;;;15.94;100.00;100594.94;5027954;28;20037;-81
2023/07/13 04:18:39;;;;;;;6.85;2.83;;;15.50;99.90;;;16.09;100.00;100589.66;5028552;28;20033;-82
2023/07/13 04:21:05;;;;;;;7.68;3.00;;;15.70;99.90;;;16.41;100.00;100601.84;5024384;28;20041;-82
2023/07/13 04:23:31;;;;;;;5.57;2.70;;;15.90;99.90;;;16.48;100.00;100602.50;5021708;28;20037;-79
2023/07/13 04:25:57;;;;;;;7.30;2.92;;;16.10;99.90;;;16.65;100.00;100599.66;5023462;28;20045;-84
2023/07/13 04:28:25;;;;;;;11.93;2.85;;;16.20;99.90;;;16.74;100.00;100586.28;5018951;28;20026;-79
2023/07/13 04:30:50;;;;;;;;;;;16.40;99.90;;;16.83;100.00;100595.72;5022875;28;20034;-81
2023/07/13 04:33:17;;;;;;;7.03;2.92;;;16.50;99.90;;;17.00;100.00;100591.22;5023841;28;19927;-84
2023/07/13 04:35:46;;;;;;;6.50;2.35;;;16.50;99.90;;;17.13;100.00;100600.97;5021606;28;20030;-81
2023/07/13 04:38:12;;;;;;;5.63;2.28;;;16.50;99.90;;;17.17;100.00;100607.63;5017764;28;20072;-83
2023/07/13 04:40:38;;;;;;;7.70;2.15;;;16.40;99.90;;;17.17;100.00;100594.69;5028805;28;20040;-82
2023/07/13 04:43:04;;;;;;;6.93;2.22;;;16.40;99.90;;;17.16;100.00;100601.28;5022399;28;20033;-80
2023/07/13 04:45:30;;;;;;;6.45;2.40;;;16.40;99.90;;;17.01;100.00;100602.00;5035301;28;20033;-78
2023/07/13 04:47:56;;;;;;;8.75;3.10;;;16.30;99.90;;;17.17;100.00;100602.09;5021701;28;20034;-79
2023/07/13 04:50:23;;;;;;;5.18;2.50;;;16.30;99.90;;;16.92;100.00;100609.00;5012456;28;20505;-79
2023/07/13 04:52:51;;;;;;;9.90;2.50;;;16.40;99.90;;;16.93;100.00;100606.00;5013205;28;20038;-77
2023/07/13 04:55:19;;;;;;;5.90;2.20;;;16.50;99.90;;;17.34;100.00;100621.28;5024365;28;20452;-80
2023/07/13 04:57:45;;;;;;;4.65;2.20;;;16.50;99.90;;;17.12;100.00;100602.91;5024276;28;20397;-81
2023/07/13 05:00:12;;;;;;;7.50;2.70;;;16.60;99.90;;;17.31;100.00;100600.59;5015749;28;20038;-80
2023/07/13 05:02:39;;;;;;;9.13;3.47;;;16.80;99.90;;;17.48;100.00;100614.22;5019973;28;20160;-79
2023/07/13 05:05:06;;;;;;;6.18;2.33;;;16.80;99.90;;;17.51;100.00;100613.69;5015933;28;20146;-81
2023/07/13 05:07:32;;;;;;;8.15;2.50;;;17.00;99.90;;;17.74;100.00;100617.16;5020216;28;20065;-78
2023/07/13 05:09:59;;;;;;;5.93;2.22;;;17.00;99.90;;;17.72;100.00;100626.78;5012856;28;20049;-84
2023/07/13 05:12:26;;;;;;;6.40;2.15;;;17.10;99.90;;;17.88;100.00;100625.81;5015748;28;20524;-84
2023/07/13 05:14:52;;;;;;;7.97;2.42;;;17.30;99.90;;;17.79;100.00;100605.34;5021239;28;20390;-81
2023/07/13 05:17:18;;;;;;;7.15;2.13;;;17.30;99.90;;;17.88;100.00;100614.78;5018940;28;20517;-82
2023/07/13 05:19:44;;;;;;;7.13;2.33;;;17.40;99.90;;;18.01;100.00;100624.53;5013996;28;20043;-81
2023/07/13 05:22:10;;;;;;;5.93;2.50;;;17.50;99.90;;;18.06;100.00;100615.47;5027664;28;20034;-80
2023/07/13 05:24:35;;;;;;;8.55;2.30;;;17.60;99.90;;;18.23;100.00;100631.81;5018507;28;20038;-80
2023/07/13 05:27:01;;;;;;;6.63;2.40;;;17.70;99.90;;;18.28;100.00;100637.38;5020076;28;20038;-82
2023/07/13 05:29:27;;;;;;;5.38;2.08;;;17.80;99.90;;;18.31;100.00;100633.25;5019963;28;20040;-89
2023/07/13 05:31:53;;;;;;;6.32;2.15;;;17.80;99.90;;;18.36;100.00;100638.78;5015483;28;20385;-83
2023/07/13 05:34:19;;;;;;;8.75;2.10;;;17.90;99.90;;;18.36;100.00;100636.84;5016366;28;20045;-84
2023/07/13 05:36:44;;;;;;;8.52;2.10;;;18.00;99.90;;;18.51;100.00;100644.34;5021392;28;20040;-88
2023/07/13 05:39:11;;;;;;;10.30;2.40;;;18.10;99.90;;;18.69;100.00;100642.22;5025034;28;20034;-82
2023/07/13 05:41:37;;;;;;;6.95;2.10;;;18.20;99.90;;;18.78;100.00;100624.00;5020629;28;20160;-87
2023/07/13 05:44:03;;;;;;;9.48;2.17;;;18.40;99.90;;;18.89;100.00;100632.31;5025590;28;20037;-80
2023/07/13 05:46:29;;;;;;;9.68;2.35;;;18.50;99.90;;;18.89;100.00;100640.63;5022897;28;20392;-82
2023/07/13 05:48:55;;;;;;;9.68;2.03;;;18.50;99.90;;;18.76;100.00;100640.03;5027903;28;20042;-85
2023/07/13 05:51:21;;;;;;;8.93;2.38;;;18.60;99.90;;;18.62;100.00;100641.66;5022490;28;20488;-83
2023/07/13 05:53:46;;;;;;;4.88;1.85;;;18.50;99.90;;;18.61;100.00;100651.03;5024489;28;20049;-85
2023/07/13 05:56:12;;;;;;;7.05;2.33;;;18.40;99.90;;;18.39;100.00;100644.59;5016949;28;20038;-87
2023/07/13 05:58:38;;;;;;;10.95;2.53;;;18.30;99.90;;;18.83;100.00;100657.19;5014717;28;20045;-79
2023/07/13 06:01:08;;;;;;;4.78;1.90;;;18.50;99.90;;;19.23;100.00;100656.72;5022936;28;20037;-83
2023/07/13 06:03:34;;;;;;;8.52;2.25;;;18.70;99.90;;;19.40;100.00;100662.00;5017286;28;20056;-88
2023/07/13 06:06:00;;;;;;;8.95;2.25;;;18.80;99.90;;;18.93;100.00;100664.66;5027985;28;20656;-86
2023/07/13 06:08:27;;;;;;;8.23;2.47;;;18.70;99.90;;;18.74;100.00;100664.34;5003135;28;20052;-83
2023/07/13 06:10:54;;;;;;;7.38;1.92;;;18.50;99.90;;;18.83;100.00;100678.47;5030698;28;20030;-80
2023/07/13 06:13:19;;;;;;;7.50;2.20;;;18.50;99.90;;;18.89;100.00;100673.78;5017310;28;20042;-84
2023/07/13 06:15:49;;;;;;;6.55;2.05;;;18.50;99.90;;;19.07;100.00;100670.50;5030946;28;20096;-83
2023/07/13 06:18:15;;;;;;;11.38;2.50;;;18.60;99.90;;;19.17;100.00;100663.38;5020403;28;20029;-86
2023/07/13 06:20:41;;;;;;;8.68;2.15;;;18.80;99.90;;;19.34;100.00;100674.97;5015895;28;20450;-81
2023/07/13 06:23:07;;;;;;;6.35;1.80;;;18.90;99.90;;;19.51;100.00;100671.97;5022756;28;20510;-82
2023/07/13 06:25:33;;;;;;;7.38;2.67;;;19.10;99.90;;;19.52;100.00;100681.94;5021865;28;20046;-82
2023/07/13 06:27:59;;;;;;;7.28;2.05;;;19.20;99.90;;;19.65;100.00;100669.47;5033154;28;20492;-86
2023/07/13 06:30:25;;;;;;;8.80;2.50;;;19.20;99.90;;;19.66;100.00;100670.28;5015546;28;20097;-83
2023/07/13 06:32:50;;;;;;;7.68;2.10;;;19.40;99.90;;;19.71;100.00;100661.97;5020550;28;20486;-85
2023/07/13 06:35:16;;;;;;;7.97;2.40;;;19.50;99.90;;;19.76;100.00;100673.06;5024566;28;20128;-85
2023/07/13 06:37:42;;;;;;;9.25;2.40;;;19.60;99.90;;;19.76;100.00;100675.00;5028212;28;20037;-82
2023/07/13 06:40:08;;;;;;;9.05;3.08;;;19.60;99.90;;;19.96;97.56;100675.00;5029623;28;20102;-86
2023/07/13 06:42:34;;;;;;;8.00;2.60;;;19.70;99.90;;;20.01;96.49;100676.91;5042119;28;20036;-81
2023/07/13 06:45:00;;;;;;;9.80;2.60;;;19.90;99.90;;;19.78;100.00;100667.22;5029555;28;20421;-80
2023/07/13 06:47:26;;;;;;;6.28;2.15;;;19.90;99.90;;;20.05;100.00;100674.41;5033520;28;20059;-80
2023/07/13 06:49:52;;;;;;;5.85;2.28;;;19.90;99.90;;;20.21;99.00;100667.75;5038080;28;20034;-78
2023/07/13 06:52:18;;;;;;;8.13;2.85;;;20.10;99.90;;;20.25;97.20;100676.28;5033127;28;20045;-83
2023/07/13 06:54:44;;;;;;;8.55;3.00;;;20.10;99.90;;;20.25;94.39;100679.91;5015592;28;20095;-87
2023/07/13 06:57:09;;;;;;;6.97;2.85;;;20.00;99.90;;;20.14;93.19;100680.22;5023061;28;20029;-84
2023/07/13 06:59:35;;;;;;;7.53;2.40;;;20.00;99.90;;;20.52;93.30;100680.63;5020995;28;20547;-84
2023/07/13 07:02:01;;;;;;;6.28;2.40;;;20.20;99.90;;;20.65;91.35;100671.72;5029253;28;20045;-81
2023/07/13 07:04:26;;;;;;;7.70;2.78;;;20.30;99.90;;;20.92;88.60;100673.28;5022418;28;20038;-83
2023/07/13 07:06:52;;;;;;;6.00;2.70;;;20.50;99.90;;;20.40;87.52;100675.41;5024231;28;20041;-83
2023/07/13 07:09:18;;;;;;;5.80;2.38;;;20.40;99.90;;;20.18;88.70;100657.22;5020573;28;20041;-85
2023/07/13 07:11:44;;;;;;;6.55;2.55;;;20.20;99.90;;;20.40;90.49;100680.97;5028694;28;20052;-82
2023/07/13 07:14:09;;;;;;;9.23;2.80;;;20.20;99.90;;;20.43;89.00;100671.25;5025783;28;20078;-84
2023/07/13 07:16:35;;;;;;;6.47;2.72;;;20.20;99.90;;;20.36;87.47;100675.16;5024671;28;20462;-83
2023/07/13 07:19:01;;;;;;;6.78;2.58;;;20.20;99.90;;;20.50;87.26;100677.31;5022895;28;20037;-86
2023/07/13 07:21:27;;;;;;;11.75;2.50;;;20.40;99.90;;;20.65;87.98;100674.50;5014605;28;20034;-85
2023/07/13 07:23:53;;;;;;;5.72;2.33;;;20.50;99.90;;;20.73;86.88;100678.63;5019816;28;20038;-81
2023/07/13 07:26:19;;;;;;;5.68;2.00;;;20.70;99.90;;;20.47;87.38;100686.19;5018057;28;20045;-81
2023/07/13 07:28:45;;;;;;;5.47;2.33;;;20.50;99.90;;;20.30;88.01;100687.38;5023616;28;20041;-81
2023/07/13 07:31:11;;;;;;;7.13;2.20;;;20.40;99.90;;;20.16;88.21;100691.84;5015593;28;20083;-83
2023/07/13 07:33:37;;;;;;;7.55;2.13;;;20.20;99.90;;;20.25;89.24;100688.22;5023582;28;20112;-79
2023/07/13 07:36:03;;;;;;;5.28;1.83;;;20.20;99.90;;;20.60;82.21;100665.38;5012498;28;20044;-84
2023/07/13 07:38:28;;;;;;;9.13;2.25;;;20.50;99.90;;;20.63;78.19;100687.81;5013878;28;20037;-83
2023/07/13 07:40:54;;;;;;;5.00;1.80;;;20.50;99.90;;;20.53;75.24;100680.38;5015537;28;20041;-81
2023/07/13 07:43:20;;;;;;;7.22;1.70;;;20.40;99.90;;;20.64;73.19;100680.31;5015279;28;20061;-83
2023/07/13 07:45:46;;;;;;;6.50;1.77;;;20.40;99.90;;;20.52;74.43;100681.47;5013656;28;20044;-83
2023/07/13 07:48:12;;;;;;;4.53;1.77;;;20.50;99.90;;;20.39;75.29;100680.16;5053145;28;20040;-85
2023/07/13 07:50:38;;;;;;;5.50;1.45;;;20.40;99.90;;;20.38;73.91;100667.41;5020909;28;20045;-82
2023/07/13 07:53:07;;;;;;;7.50;1.75;;;20.30;99.90;;;20.26;74.90;100681.56;5022411;28;20034;-82
2023/07/13 07:55:35;;;;;;;5.00;1.67;;;20.30;99.90;;;20.55;74.33;100686.44;5024701;28;20397;-79
2023/07/13 07:58:01;;;;;;;9.60;2.30;;;20.30;99.90;;;20.17;74.73;100690.72;5022421;28;20029;-81
2023/07/13 08:00:30;;;;;;;5.60;1.60;;;20.30;99.90;;;20.59;75.89;100694.19;5041855;28;20041;-81
2023/07/13 08:02:56;;;;;;;7.63;1.70;;;20.30;99.90;;;20.61;75.70;100692.81;5021693;28;20458;-84
2023/07/13 08:05:21;;;;;;;7.35;2.10;;;20.40;99.90;;;20.71;74.30;100694.72;5019888;28;20045;-79
2023/07/13 08:07:47;;;;;;;6.63;1.50;;;20.50;99.90;;;20.38;75.72;100689.56;5043660;28;20400;-84
2023/07/13 08:10:13;;;;;;;5.47;1.70;;;20.40;99.90;;;20.76;75.52;100691.06;5021461;28;20052;-82
2023/07/13 08:12:40;;;;;;;5.97;1.45;;;20.50;99.90;;;21.33;74.06;100682.44;5023771;28;20082;-82
2023/07/13 08:15:11;;;;;;;5.70;1.50;;;20.90;99.90;;;21.35;70.33;100675.50;5029941;28;20117;-86
2023/07/13 08:17:37;;;;;;;6.70;1.60;;;;;;;21.77;67.87;100697.41;5021452;28;20045;-84
2023/07/13 08:20:04;;;;;;;4.63;1.70;;;;;;;21.64;66.43;100693.31;5026866;28;20052;-83
2023/07/13 08:22:30;;;;;;;6.57;1.50;;;;;;;21.86;65.34;100692.84;5029160;28;20112;-86
2023/07/13 08:24:56;;;;;;;7.97;1.75;;;;;;;21.86;66.88;100690.09;5027247;28;20030;-84
2023/07/13 08:27:23;;;;;;;5.63;1.63;;;;;;;21.88;65.79;100698.09;5031895;28;20044;-86
2023/07/13 08:29:50;;;;;;;5.28;1.85;;;;;;;21.54;67.02;100703.34;5028690;28;20097;-78
2023/07/13 08:32:17;;;;;;;5.88;1.55;;;;;;;21.78;67.06;100701.81;5029409;28;20493;-86
2023/07/13 08:34:44;;;;;;;5.25;1.67;;;;;;;22.35;67.20;100699.28;5018131;28;20049;-84
2023/07/13 08:37:10;;;;;;;7.15;1.60;;;;;;;21.84;65.25;100697.88;5024959;28;20037;-86
2023/07/13 08:39:36;;;;;;;4.85;1.50;;;;;;;21.87;65.92;100702.00;5028144;28;20092;-83
2023/07/13 08:42:15;;;;;;;6.20;1.60;;;;;;;22.02;68.80;100712.16;5027908;28;20030;-81
2023/07/13 08:45:10;;;;;;;7.82;1.60;;;;;;;22.68;62.47;100690.31;5023692;28;20095;-85
2023/07/13 08:47:45;;;;;;;5.18;1.50;;;21.10;99.90;;;22.31;63.98;100689.06;5012173;28;20046;-81
2023/07/13 08:50:20;;;;;;;6.00;1.67;;;22.10;97.00;;;22.25;62.96;100693.84;5021129;28;20040;-84
2023/07/13 08:52:47;;;;;;;6.05;1.70;;;22.00;97.00;;;22.24;63.43;100695.78;5022387;28;20030;-85
2023/07/13 08:55:20;;;;;;;6.25;1.77;;;22.00;97.30;;;22.34;62.97;100703.19;5017628;28;20129;-81
2023/07/13 08:57:59;;;;;;;7.35;1.88;;;22.20;96.80;;;22.27;62.56;100700.75;5027857;28;20039;-84
2023/07/13 09:00:43;;;;;;;7.97;2.00;;;22.20;96.80;;;21.68;65.33;100699.97;5016868;28;20045;-81
2023/07/13 09:03:23;;;;;;;6.80;1.67;;;22.00;96.80;;;21.97;68.03;100711.06;5016414;28;20057;-80
2023/07/13 09:05:57;;;;;;;6.25;1.77;;;21.80;97.80;;;22.57;62.53;100692.41;5016204;28;20489;-80
2023/07/13 09:08:48;;;;;;;6.13;1.80;;;;;;;23.16;61.22;100692.16;5029252;28;20490;-80
2023/07/13 09:11:50;;;;;;;7.47;1.65;;;;;;;22.87;60.20;100689.53;5026063;28;20044;-81
2023/07/13 09:14:27;;;;;;;6.68;2.00;;;;;;;22.94;60.10;100701.09;5028579;28;20406;-84
2023/07/13 09:16:54;;;;;;;4.30;1.60;;;;;;;22.51;61.18;100715.81;5029155;28;20063;-82
2023/07/13 09:19:30;;;;;;;7.43;1.70;;;22.30;96.30;;;22.16;64.17;100723.41;5026033;28;20029;-84
2023/07/13 09:21:58;;;;;;;7.03;1.65;;;22.20;96.00;;;21.84;63.89;100732.00;5021583;28;20037;-84
2023/07/13 09:24:37;;;;;;;6.53;2.00;;;21.90;95.90;;;21.58;66.15;100725.81;5041739;28;20114;-81
2023/07/13 09:27:17;;;;;;;7.82;1.58;;;21.70;96.80;;;22.36;65.24;100725.94;5025709;28;20038;-85
2023/07/13 09:29:54;;;;;;;6.60;1.77;;;22.00;97.00;;;22.62;64.72;100722.91;5016704;28;20034;-83
2023/07/13 09:32:25;;;;;;;5.70;1.70;;;22.40;96.70;;;22.46;62.52;100722.25;5053485;28;20052;-82
2023/07/13 09:34:54;;;;;;;7.32;2.10;;;;;;;22.62;63.86;100727.66;5008608;28;20405;-85
2023/07/13 09:37:32;;;;;;;6.68;1.77;;;;;;;23.01;60.95;100709.88;5021491;28;20038;-83
2023/07/13 09:40:01;;;;;;;5.88;1.65;;;;;;;23.56;58.19;100694.63;5017571;28;20058;-84
2023/07/13 09:42:28;;;;;;;4.05;1.50;;;;;;;24.12;57.14;100711.50;5030923;28;20091;-85
2023/07/13 09:44:56;;;;;;;5.72;1.65;;;;;;;22.72;58.34;100710.81;5029041;28;20060;-84
2023/07/13 09:47:29;;;;;;;4.78;1.48;;;;;;;23.30;57.84;100714.50;5020174;28;20183;-87
2023/07/13 09:50:01;;;;;;;7.50;1.80;;;;;;;23.89;54.92;100707.72;5024299;28;20041;-87
2023/07/13 09:52:39;;;;;;;4.43;1.55;;;;;;;24.09;53.72;100706.53;5018089;28;20053;-86
2023/07/13 09:55:25;;;;;;;6.22;1.75;;;;;;;23.80;55.94;100705.63;5016683;28;20410;-85
2023/07/13 09:57:52;;;;;;;6.72;1.70;;;;;;;24.07;55.36;100711.59;5025289;28;20030;-86
2023/07/13 10:00:26;;;;;;;5.07;1.40;;;;;;;24.39;52.85;100698.72;5015968;28;20061;-83
2023/07/13 10:03:00;;;;;;;5.70;1.70;;;;;;;24.83;53.85;100707.63;5026224;28;20045;-84
2023/07/13 10:05:26;;;;;;;6.28;2.20;;;;;;;25.07;51.28;100696.19;5029119;28;20053;-86
2023/07/13 10:07:56;;;;;;;6.68;1.60;;;;;;;24.29;51.92;100696.97;5022765;28;20535;-83
2023/07/13 10:10:23;;;;;;;5.70;1.48;;;22.40;95.50;;;23.56;54.64;100702.97;5020892;28;20029;-84
2023/07/13 10:12:50;;;;;;;6.10;1.83;;;23.90;91.80;;;23.37;56.10;100706.63;5024254;28;20052;-84
2023/07/13 10:15:24;;;;;;;5.15;1.65;;;23.40;92.40;;;23.62;57.38;100724.03;5015570;28;20089;-83
2023/07/13 10:17:54;;;;;;;7.28;1.95;;;23.30;93.50;;;24.11;55.21;100715.41;5021213;28;20057;-86
2023/07/13 10:20:21;;;;;;;5.95;1.55;;;23.60;93.00;;;23.91;55.84;100711.84;5023252;28;20057;-84
2023/07/13 10:22:54;;;;;;;7.00;1.77;;;;;;;24.63;53.85;100708.81;5018385;28;20042;-83